sensor_id;sensor_type;location;lat;lon;timestamp;pressure;altitude;pressure_sealevel;temperature;humidity
24280;BME280;12395;42.808;23.408;2023-12-22T00:00:26;93430.78;;;-0.09;100.00
24280;BME280;12395;42.808;23.408;2023-12-22T00:02:52;93426.13;;;-0.14;100.00
24280;BME280;12395;42.808;23.408;2023-12-22T00:05:17;93429.44;;;-0.05;100.00
24280;BME280;12395;42.808;23.408;2023-12-22T00:07:43;93418.72;;;0.05;100.00
24280;BME280;12395;42.808;23.408;2023-12-22T00:10:08;93423.16;;;0.04;100.00
24280;BME280;12395;42.808;23.408;2023-12-22T00:12:34;93405.38;;;-0.07;100.00
24280;BME280;12395;42.808;23.408;2023-12-22T00:15:00;93417.03;;;-0.03;100.00
24280;BME280;12395;42.808;23.408;2023-12-22T00:17:25;93410.59;;;-0.07;100.00
24280;BME280;12395;42.808;23.408;2023-12-22T00:19:50;93386.34;;;-0.22;100.00
24280;BME280;12395;42.808;23.408;2023-12-22T00:22:16;93407.06;;;0.00;100.00
24280;BME280;12395;42.808;23.408;2023-12-22T00:24:41;93403.31;;;0.03;100.00
24280;BME280;12395;42.808;23.408;2023-12-22T00:27:06;93407.06;;;0.15;100.00
24280;BME280;12395;42.808;23.408;2023-12-22T00:29:32;93404.91;;;0.19;100.00
24280;BME280;12395;42.808;23.408;2023-12-22T00:32:01;93402.84;;;0.14;100.00
24280;BME280;12395;42.808;23.408;2023-12-22T00:34:26;93386.78;;;0.11;100.00
24280;BME280;12395;42.808;23.408;2023-12-22T00:36:51;93379.16;;;0.09;100.00
24280;BME280;12395;42.808;23.408;2023-12-22T00:39:17;93376.53;;;0.09;100.00
24280;BME280;12395;42.808;23.408;2023-12-22T00:41:42;93379.84;;;0.18;100.00
24280;BME280;12395;42.808;23.408;2023-12-22T00:44:08;93375.81;;;0.15;100.00
24280;BME280;12395;42.808;23.408;2023-12-22T00:46:33;93392.34;;;0.22;100.00
24280;BME280;12395;42.808;23.408;2023-12-22T00:48:58;93384.16;;;0.25;100.00
24280;BME280;12395;42.808;23.408;2023-12-22T00:51:24;93372.03;;;0.18;100.00
24280;BME280;12395;42.808;23.408;2023-12-22T00:53:50;93372.13;;;0.24;100.00
24280;BME280;12395;42.808;23.408;2023-12-22T00:56:16;93364.50;;;0.23;100.00
24280;BME280;12395;42.808;23.408;2023-12-22T00:58:41;93366.47;;;0.21;100.00
24280;BME280;12395;42.808;23.408;2023-12-22T01:01:06;93371.03;;;0.33;100.00
24280;BME280;12395;42.808;23.408;2023-12-22T01:03:32;93350.47;;;0.24;100.00
24280;BME280;12395;42.808;23.408;2023-12-22T01:05:57;93370.59;;;0.30;100.00
24280;BME280;12395;42.808;23.408;2023-12-22T01:08:22;93374.06;;;0.37;100.00
24280;BME280;12395;42.808;23.408;2023-12-22T01:10:48;93350.94;;;0.27;100.00
24280;BME280;12395;42.808;23.408;2023-12-22T01:13:14;93356.66;;;0.37;100.00
24280;BME280;12395;42.808;23.408;2023-12-22T01:15:39;93357.69;;;0.43;100.00
24280;BME280;12395;42.808;23.408;2023-12-22T01:18:05;93337.88;;;0.42;100.00
24280;BME280;12395;42.808;23.408;2023-12-22T01:20:30;93355.44;;;0.54;100.00
24280;BME280;12395;42.808;23.408;2023-12-22T01:22:56;93339.91;;;0.46;100.00
24280;BME280;12395;42.808;23.408;2023-12-22T01:25:21;93325.94;;;0.33;100.00
24280;BME280;12395;42.808;23.408;2023-12-22T01:27:46;93347.53;;;0.48;100.00
24280;BME280;12395;42.808;23.408;2023-12-22T01:30:13;93354.59;;;0.33;100.00
24280;BME280;12395;42.808;23.408;2023-12-22T01:32:38;93345.41;;;0.37;100.00
24280;BME280;12395;42.808;23.408;2023-12-22T01:35:04;93338.50;;;0.44;100.00
24280;BME280;12395;42.808;23.408;2023-12-22T01:37:35;93333.16;;;0.52;100.00
24280;BME280;12395;42.808;23.408;2023-12-22T01:40:00;93324.72;;;0.50;100.00
24280;BME280;12395;42.808;23.408;2023-12-22T01:42:26;93305.19;;;0.39;100.00
24280;BME280;12395;42.808;23.408;2023-12-22T01:44:51;93318.06;;;0.47;100.00
24280;BME280;12395;42.808;23.408;2023-12-22T01:47:16;93330.25;;;0.61;100.00
24280;BME280;12395;42.808;23.408;2023-12-22T01:49:42;93337.53;;;0.66;100.00
24280;BME280;12395;42.808;23.408;2023-12-22T01:52:08;93313.94;;;0.53;100.00
24280;BME280;12395;42.808;23.408;2023-12-22T01:54:33;93324.50;;;0.66;100.00
24280;BME280;12395;42.808;23.408;2023-12-22T01:56:59;93330.56;;;0.73;100.00
24280;BME280;12395;42.808;23.408;2023-12-22T01:59:25;93313.63;;;0.62;100.00
24280;BME280;12395;42.808;23.408;2023-12-22T02:01:52;93319.28;;;0.66;100.00
24280;BME280;12395;42.808;23.408;2023-12-22T02:04:18;93333.41;;;0.78;100.00
24280;BME280;12395;42.808;23.408;2023-12-22T02:06:44;93330.56;;;0.73;100.00
24280;BME280;12395;42.808;23.408;2023-12-22T02:09:09;93323.34;;;0.75;100.00
24280;BME280;12395;42.808;23.408;2023-12-22T02:11:37;93327.84;;;0.81;100.00
24280;BME280;12395;42.808;23.408;2023-12-22T02:14:03;93330.44;;;0.81;100.00
24280;BME280;12395;42.808;23.408;2023-12-22T02:16:52;93328.69;;;0.88;100.00
24280;BME280;12395;42.808;23.408;2023-12-22T02:22:05;93306.22;;;0.87;100.00
24280;BME280;12395;42.808;23.408;2023-12-22T02:24:30;93295.56;;;0.82;100.00
24280;BME280;12395;42.808;23.408;2023-12-22T02:29:49;93289.78;;;0.87;100.00
24280;BME280;12395;42.808;23.408;2023-12-22T02:32:27;93295.25;;;0.92;100.00
24280;BME280;12395;42.808;23.408;2023-12-22T02:34:55;93270.91;;;0.85;100.00
24280;BME280;12395;42.808;23.408;2023-12-22T02:37:22;93298.53;;;1.00;100.00
24280;BME280;12395;42.808;23.408;2023-12-22T02:39:49;93307.94;;;1.01;100.00
24280;BME280;12395;42.808;23.408;2023-12-22T02:42:16;93295.25;;;0.92;100.00
24280;BME280;12395;42.808;23.408;2023-12-22T02:44:42;93304.34;;;1.02;100.00
24280;BME280;12395;42.808;23.408;2023-12-22T02:47:07;93295.47;;;0.97;100.00
24280;BME280;12395;42.808;23.408;2023-12-22T02:49:33;93297.56;;;1.08;100.00
24280;BME280;12395;42.808;23.408;2023-12-22T02:51:58;93285.28;;;1.02;100.00
24280;BME280;12395;42.808;23.408;2023-12-22T02:54:24;93275.84;;;1.01;100.00
24280;BME280;12395;42.808;23.408;2023-12-22T02:56:49;93274.09;;;1.08;100.00
24280;BME280;12395;42.808;23.408;2023-12-22T02:59:14;93265.47;;;1.07;100.00
24280;BME280;12395;42.808;23.408;2023-12-22T03:01:40;93264.06;;;1.05;100.00
24280;BME280;12395;42.808;23.408;2023-12-22T03:04:05;93276.19;;;1.19;100.00
24280;BME280;12395;42.808;23.408;2023-12-22T03:06:30;93291.28;;;1.23;100.00
24280;BME280;12395;42.808;23.408;2023-12-22T03:08:56;93284.06;;;1.25;100.00
24280;BME280;12395;42.808;23.408;2023-12-22T03:11:21;93290.53;;;1.36;100.00
24280;BME280;12395;42.808;23.408;2023-12-22T03:13:46;93289.56;;;1.43;100.00
24280;BME280;12395;42.808;23.408;2023-12-22T03:16:12;93302.25;;;1.46;100.00
24280;BME280;12395;42.808;23.408;2023-12-22T03:18:38;93296.03;;;1.47;100.00
24280;BME280;12395;42.808;23.408;2023-12-22T03:21:04;93281.94;;;1.42;100.00
24280;BME280;12395;42.808;23.408;2023-12-22T03:23:30;93289.19;;;1.46;100.00
24280;BME280;12395;42.808;23.408;2023-12-22T03:25:55;93289.34;;;1.38;100.00
24280;BME280;12395;42.808;23.408;2023-12-22T03:28:21;93277.34;;;1.44;100.00
24280;BME280;12395;42.808;23.408;2023-12-22T03:30:46;93284.03;;;1.53;100.00
24280;BME280;12395;42.808;23.408;2023-12-22T03:33:11;93266.75;;;1.52;100.00
24280;BME280;12395;42.808;23.408;2023-12-22T03:35:37;93274.63;;;1.65;100.00
24280;BME280;12395;42.808;23.408;2023-12-22T03:38:02;93271.09;;;1.73;100.00
24280;BME280;12395;42.808;23.408;2023-12-22T03:40:28;93263.16;;;2.00;100.00
24280;BME280;12395;42.808;23.408;2023-12-22T03:42:55;93264.81;;;2.14;100.00
24280;BME280;12395;42.808;23.408;2023-12-22T03:45:20;93259.00;;;2.25;100.00
24280;BME280;12395;42.808;23.408;2023-12-22T03:47:45;93268.06;;;2.29;100.00
24280;BME280;12395;42.808;23.408;2023-12-22T03:50:11;93268.31;;;2.41;100.00
24280;BME280;12395;42.808;23.408;2023-12-22T03:52:36;93272.56;;;2.68;100.00
24280;BME280;12395;42.808;23.408;2023-12-22T03:55:02;93273.56;;;2.80;100.00
24280;BME280;12395;42.808;23.408;2023-12-22T03:57:27;93274.16;;;2.89;100.00
24280;BME280;12395;42.808;23.408;2023-12-22T03:59:53;93277.81;;;3.01;100.00
24280;BME280;12395;42.808;23.408;2023-12-22T04:02:18;93266.16;;;3.03;100.00
24280;BME280;12395;42.808;23.408;2023-12-22T04:04:44;93271.78;;;3.20;100.00
24280;BME280;12395;42.808;23.408;2023-12-22T04:07:09;93268.13;;;3.21;100.00
24280;BME280;12395;42.808;23.408;2023-12-22T04:09:36;93270.56;;;3.29;100.00
24280;BME280;12395;42.808;23.408;2023-12-22T04:12:02;93238.34;;;3.22;100.00
24280;BME280;12395;42.808;23.408;2023-12-22T04:14:28;93247.19;;;3.34;100.00
24280;BME280;12395;42.808;23.408;2023-12-22T04:16:53;93263.25;;;3.51;100.00
24280;BME280;12395;42.808;23.408;2023-12-22T04:19:19;93257.84;;;3.46;100.00
24280;BME280;12395;42.808;23.408;2023-12-22T04:21:44;93255.81;;;3.48;100.00
24280;BME280;12395;42.808;23.408;2023-12-22T04:24:09;93270.91;;;3.59;100.00
24280;BME280;12395;42.808;23.408;2023-12-22T04:26:35;93266.50;;;3.53;100.00
24280;BME280;12395;42.808;23.408;2023-12-22T04:29:01;93254.06;;;3.22;100.00
24280;BME280;12395;42.808;23.408;2023-12-22T04:31:26;93249.03;;;3.07;100.00
24280;BME280;12395;42.808;23.408;2023-12-22T04:33:52;93260.91;;;3.03;100.00
24280;BME280;12395;42.808;23.408;2023-12-22T04:36:17;93256.06;;;2.87;100.00
24280;BME280;12395;42.808;23.408;2023-12-22T04:38:42;93266.53;;;2.87;100.00
24280;BME280;12395;42.808;23.408;2023-12-22T04:41:08;93255.28;;;2.67;100.00
24280;BME280;12395;42.808;23.408;2023-12-22T04:43:33;93250.41;;;2.51;100.00
24280;BME280;12395;42.808;23.408;2023-12-22T04:45:58;93261.88;;;2.57;100.00
24280;BME280;12395;42.808;23.408;2023-12-22T04:48:24;93256.47;;;2.52;100.00
24280;BME280;12395;42.808;23.408;2023-12-22T04:50:49;93251.22;;;2.45;100.00
24280;BME280;12395;42.808;23.408;2023-12-22T04:53:14;93248.78;;;2.37;100.00
24280;BME280;12395;42.808;23.408;2023-12-22T04:55:40;93253.00;;;2.38;100.00
24280;BME280;12395;42.808;23.408;2023-12-22T04:58:05;93242.53;;;2.31;100.00
24280;BME280;12395;42.808;23.408;2023-12-22T05:00:31;93234.69;;;2.31;100.00
24280;BME280;12395;42.808;23.408;2023-12-22T05:02:56;93241.53;;;2.26;100.00
24280;BME280;12395;42.808;23.408;2023-12-22T05:05:21;93242.13;;;2.28;100.00
24280;BME280;12395;42.808;23.408;2023-12-22T05:07:47;93239.94;;;2.31;100.00
24280;BME280;12395;42.808;23.408;2023-12-22T05:10:12;93230.28;;;2.25;100.00
24280;BME280;12395;42.808;23.408;2023-12-22T05:12:37;93244.34;;;2.31;100.00
24280;BME280;12395;42.808;23.408;2023-12-22T05:15:03;93236.28;;;2.19;100.00
24280;BME280;12395;42.808;23.408;2023-12-22T05:17:29;93235.88;;;2.22;100.00
24280;BME280;12395;42.808;23.408;2023-12-22T05:19:54;93241.91;;;2.23;100.00
24280;BME280;12395;42.808;23.408;2023-12-22T05:22:20;93229.66;;;2.17;100.00
24280;BME280;12395;42.808;23.408;2023-12-22T05:24:45;93239.28;;;2.16;100.00
24280;BME280;12395;42.808;23.408;2023-12-22T05:27:11;93220.53;;;1.93;100.00
24280;BME280;12395;42.808;23.408;2023-12-22T05:29:36;93231.44;;;2.10;100.00
24280;BME280;12395;42.808;23.408;2023-12-22T05:32:02;93227.44;;;2.20;100.00
24280;BME280;12395;42.808;23.408;2023-12-22T05:34:27;93228.06;;;2.29;100.00
24280;BME280;12395;42.808;23.408;2023-12-22T05:36:52;93238.34;;;2.44;100.00
24280;BME280;12395;42.808;23.408;2023-12-22T05:39:18;93248.22;;;2.68;100.00
24280;BME280;12395;42.808;23.408;2023-12-22T05:41:43;93234.94;;;2.95;100.00
24280;BME280;12395;42.808;23.408;2023-12-22T05:44:08;93246.81;;;3.24;100.00
24280;BME280;12395;42.808;23.408;2023-12-22T05:46:37;93250.38;;;3.43;100.00
24280;BME280;12395;42.808;23.408;2023-12-22T05:49:06;93236.28;;;3.50;100.00
24280;BME280;12395;42.808;23.408;2023-12-22T05:51:38;93239.88;;;3.62;100.00
24280;BME280;12395;42.808;23.408;2023-12-22T05:54:05;93241.06;;;3.73;100.00
24280;BME280;12395;42.808;23.408;2023-12-22T05:56:30;93237.00;;;3.77;100.00
24280;BME280;12395;42.808;23.408;2023-12-22T05:58:56;93229.75;;;3.79;100.00
24280;BME280;12395;42.808;23.408;2023-12-22T06:01:21;93234.13;;;3.91;100.00
24280;BME280;12395;42.808;23.408;2023-12-22T06:03:47;93250.59;;;4.05;100.00
24280;BME280;12395;42.808;23.408;2023-12-22T06:06:12;93247.00;;;4.06;100.00
24280;BME280;12395;42.808;23.408;2023-12-22T06:08:38;93226.44;;;4.03;100.00
24280;BME280;12395;42.808;23.408;2023-12-22T06:11:04;93236.06;;;4.09;100.00
24280;BME280;12395;42.808;23.408;2023-12-22T06:13:30;93224.78;;;4.09;100.00
24280;BME280;12395;42.808;23.408;2023-12-22T06:15:55;93225.59;;;4.09;100.00
24280;BME280;12395;42.808;23.408;2023-12-22T06:18:21;93232.03;;;4.07;100.00
24280;BME280;12395;42.808;23.408;2023-12-22T06:20:46;93224.00;;;4.08;100.00
24280;BME280;12395;42.808;23.408;2023-12-22T06:23:11;93223.75;;;4.16;100.00
24280;BME280;12395;42.808;23.408;2023-12-22T06:25:36;93231.94;;;4.26;100.00
24280;BME280;12395;42.808;23.408;2023-12-22T06:28:02;93212.44;;;4.22;100.00
24280;BME280;12395;42.808;23.408;2023-12-22T06:30:28;93228.09;;;4.35;100.00
24280;BME280;12395;42.808;23.408;2023-12-22T06:32:54;93229.84;;;4.41;100.00
24280;BME280;12395;42.808;23.408;2023-12-22T06:35:19;93236.72;;;4.42;100.00
24280;BME280;12395;42.808;23.408;2023-12-22T06:37:49;93237.50;;;4.43;100.00
24280;BME280;12395;42.808;23.408;2023-12-22T06:40:14;93233.00;;;4.56;100.00
24280;BME280;12395;42.808;23.408;2023-12-22T06:42:40;93230.75;;;4.60;100.00
24280;BME280;12395;42.808;23.408;2023-12-22T06:45:05;93251.84;;;4.72;100.00
24280;BME280;12395;42.808;23.408;2023-12-22T06:47:31;93256.66;;;4.81;100.00
24280;BME280;12395;42.808;23.408;2023-12-22T06:49:56;93241.78;;;4.68;100.00
24280;BME280;12395;42.808;23.408;2023-12-22T06:52:22;93254.41;;;4.85;100.00
24280;BME280;12395;42.808;23.408;2023-12-22T06:54:47;93243.69;;;4.86;100.00
24280;BME280;12395;42.808;23.408;2023-12-22T06:57:12;93233.78;;;4.88;100.00
24280;BME280;12395;42.808;23.408;2023-12-22T06:59:39;93242.63;;;4.94;100.00
24280;BME280;12395;42.808;23.408;2023-12-22T07:02:04;93247.44;;;4.97;100.00
24280;BME280;12395;42.808;23.408;2023-12-22T07:07:33;93263.94;;;5.04;100.00
24280;BME280;12395;42.808;23.408;2023-12-22T07:09:58;93268.97;;;5.05;100.00
24280;BME280;12395;42.808;23.408;2023-12-22T07:12:23;93263.94;;;5.04;100.00
24280;BME280;12395;42.808;23.408;2023-12-22T07:14:49;93272.13;;;5.14;100.00
24280;BME280;12395;42.808;23.408;2023-12-22T07:17:14;93267.38;;;5.04;100.00
24280;BME280;12395;42.808;23.408;2023-12-22T07:19:40;93273.16;;;5.13;100.00
24280;BME280;12395;42.808;23.408;2023-12-22T07:22:06;93270.53;;;5.13;100.00
24280;BME280;12395;42.808;23.408;2023-12-22T07:24:31;93284.25;;;5.15;100.00
24280;BME280;12395;42.808;23.408;2023-12-22T07:26:57;93275.97;;;5.11;100.00
24280;BME280;12395;42.808;23.408;2023-12-22T07:29:22;93264.88;;;5.09;100.00
24280;BME280;12395;42.808;23.408;2023-12-22T07:31:47;93274.69;;;5.20;100.00
24280;BME280;12395;42.808;23.408;2023-12-22T07:34:13;93270.84;;;5.23;100.00
24280;BME280;12395;42.808;23.408;2023-12-22T07:36:39;93275.28;;;5.22;100.00
24280;BME280;12395;42.808;23.408;2023-12-22T07:39:05;93282.88;;;5.30;100.00
24280;BME280;12395;42.808;23.408;2023-12-22T07:41:32;93285.31;;;5.32;100.00
24280;BME280;12395;42.808;23.408;2023-12-22T07:43:57;93288.53;;;5.34;100.00
24280;BME280;12395;42.808;23.408;2023-12-22T07:46:22;93287.94;;;5.32;100.00
24280;BME280;12395;42.808;23.408;2023-12-22T07:48:48;93288.09;;;5.37;100.00
24280;BME280;12395;42.808;23.408;2023-12-22T07:51:14;93296.50;;;5.45;100.00
24280;BME280;12395;42.808;23.408;2023-12-22T07:53:40;93293.56;;;5.35;100.00
24280;BME280;12395;42.808;23.408;2023-12-22T07:56:05;93302.47;;;5.34;100.00
24280;BME280;12395;42.808;23.408;2023-12-22T07:58:31;93303.53;;;5.27;100.00
24280;BME280;12395;42.808;23.408;2023-12-22T08:00:58;93309.53;;;5.34;100.00
24280;BME280;12395;42.808;23.408;2023-12-22T08:03:24;93306.75;;;5.29;100.00
24280;BME280;12395;42.808;23.408;2023-12-22T08:05:49;93313.16;;;5.33;100.00
24280;BME280;12395;42.808;23.408;2023-12-22T08:08:14;93311.19;;;5.28;100.00
24280;BME280;12395;42.808;23.408;2023-12-22T08:10:40;93319.28;;;5.27;100.00
24280;BME280;12395;42.808;23.408;2023-12-22T08:13:06;93321.69;;;5.28;100.00
24280;BME280;12395;42.808;23.408;2023-12-22T08:15:31;93314.72;;;5.16;100.00
24280;BME280;12395;42.808;23.408;2023-12-22T08:17:57;93331.81;;;5.25;100.00
24280;BME280;12395;42.808;23.408;2023-12-22T08:20:23;93335.56;;;5.11;100.00
24280;BME280;12395;42.808;23.408;2023-12-22T08:22:50;93331.53;;;5.08;100.00
24280;BME280;12395;42.808;23.408;2023-12-22T08:25:16;93336.75;;;5.15;100.00
24280;BME280;12395;42.808;23.408;2023-12-22T08:27:45;93338.78;;;5.13;100.00
24280;BME280;12395;42.808;23.408;2023-12-22T08:30:10;93340.81;;;5.11;100.00
24280;BME280;12395;42.808;23.408;2023-12-22T08:32:36;93334.63;;;4.99;100.00
24280;BME280;12395;42.808;23.408;2023-12-22T08:35:01;93343.28;;;4.99;100.00
24280;BME280;12395;42.808;23.408;2023-12-22T08:37:28;93338.00;;;5.06;100.00
24280;BME280;12395;42.808;23.408;2023-12-22T08:39:53;93335.00;;;5.02;100.00
24280;BME280;12395;42.808;23.408;2023-12-22T08:42:19;93339.81;;;5.05;100.00
24280;BME280;12395;42.808;23.408;2023-12-22T08:44:44;93343.66;;;5.03;100.00
24280;BME280;12395;42.808;23.408;2023-12-22T08:47:10;93338.84;;;5.00;100.00
24280;BME280;12395;42.808;23.408;2023-12-22T08:49:35;93336.81;;;5.02;100.00
24280;BME280;12395;42.808;23.408;2023-12-22T08:52:00;93345.47;;;5.09;100.00
24280;BME280;12395;42.808;23.408;2023-12-22T08:54:29;93335.59;;;5.04;100.00
24280;BME280;12395;42.808;23.408;2023-12-22T08:56:54;93342.44;;;5.05;100.00
24280;BME280;12395;42.808;23.408;2023-12-22T08:59:19;93347.72;;;4.99;100.00
24280;BME280;12395;42.808;23.408;2023-12-22T09:01:45;93337.72;;;4.89;100.00
24280;BME280;12395;42.808;23.408;2023-12-22T09:04:10;93354.16;;;5.03;100.00
24280;BME280;12395;42.808;23.408;2023-12-22T09:06:38;93350.44;;;4.86;100.00
24280;BME280;12395;42.808;23.408;2023-12-22T09:09:04;93352.81;;;4.94;100.00
24280;BME280;12395;42.808;23.408;2023-12-22T09:11:30;93355.00;;;4.97;100.00
24280;BME280;12395;42.808;23.408;2023-12-22T09:13:55;93348.19;;;4.96;100.00
24280;BME280;12395;42.808;23.408;2023-12-22T09:16:22;93342.34;;;4.94;100.00
24280;BME280;12395;42.808;23.408;2023-12-22T09:18:48;93357.22;;;5.00;100.00
24280;BME280;12395;42.808;23.408;2023-12-22T09:21:13;93363.06;;;5.02;100.00
24280;BME280;12395;42.808;23.408;2023-12-22T09:23:39;93363.63;;;5.10;100.00
24280;BME280;12395;42.808;23.408;2023-12-22T09:26:04;93354.56;;;5.06;100.00
24280;BME280;12395;42.808;23.408;2023-12-22T09:28:30;93355.53;;;5.12;100.00
24280;BME280;12395;42.808;23.408;2023-12-22T09:30:55;93346.66;;;5.13;100.00
24280;BME280;12395;42.808;23.408;2023-12-22T09:33:21;93349.78;;;5.28;100.00
24280;BME280;12395;42.808;23.408;2023-12-22T09:35:47;93360.44;;;5.33;100.00
24280;BME280;12395;42.808;23.408;2023-12-22T09:38:13;93340.09;;;5.22;100.00
24280;BME280;12395;42.808;23.408;2023-12-22T09:41:32;93353.00;;;5.30;100.00
24280;BME280;12395;42.808;23.408;2023-12-22T09:43:59;93363.09;;;5.26;100.00
24280;BME280;12395;42.808;23.408;2023-12-22T09:46:25;93327.41;;;5.19;100.00
24280;BME280;12395;42.808;23.408;2023-12-22T09:48:52;93341.84;;;5.34;100.00
24280;BME280;12395;42.808;23.408;2023-12-22T09:54:17;93319.06;;;5.53;100.00
24280;BME280;12395;42.808;23.408;2023-12-22T09:56:44;93321.00;;;5.82;100.00
24280;BME280;12395;42.808;23.408;2023-12-22T09:59:13;93308.19;;;5.92;100.00
24280;BME280;12395;42.808;23.408;2023-12-22T10:01:45;93347.53;;;6.23;100.00
24280;BME280;12395;42.808;23.408;2023-12-22T10:04:15;93342.84;;;6.26;100.00
24280;BME280;12395;42.808;23.408;2023-12-22T10:06:41;93327.44;;;6.29;100.00
24280;BME280;12395;42.808;23.408;2023-12-22T10:09:07;93328.31;;;6.41;100.00
24280;BME280;12395;42.808;23.408;2023-12-22T10:11:35;93329.69;;;6.44;100.00
24280;BME280;12395;42.808;23.408;2023-12-22T10:14:02;93323.41;;;6.45;100.00
24280;BME280;12395;42.808;23.408;2023-12-22T10:16:28;93315.16;;;6.41;100.00
24280;BME280;12395;42.808;23.408;2023-12-22T10:20:18;93326.19;;;6.32;100.00
24280;BME280;12395;42.808;23.408;2023-12-22T10:25:15;93320.63;;;6.03;100.00
24280;BME280;12395;42.808;23.408;2023-12-22T10:27:44;93310.41;;;5.95;100.00
24280;BME280;12395;42.808;23.408;2023-12-22T10:30:10;93290.25;;;5.89;100.00
24280;BME280;12395;42.808;23.408;2023-12-22T10:32:42;93270.81;;;5.90;100.00
24280;BME280;12395;42.808;23.408;2023-12-22T10:35:08;93283.25;;;6.19;100.00
24280;BME280;12395;42.808;23.408;2023-12-22T10:37:33;93279.09;;;6.30;100.00
24280;BME280;12395;42.808;23.408;2023-12-22T10:39:59;93295.41;;;6.50;100.00
24280;BME280;12395;42.808;23.408;2023-12-22T10:42:24;93266.25;;;6.52;100.00
24280;BME280;12395;42.808;23.408;2023-12-22T10:44:51;93273.59;;;6.50;100.00
24280;BME280;12395;42.808;23.408;2023-12-22T10:47:18;93244.72;;;6.43;100.00
24280;BME280;12395;42.808;23.408;2023-12-22T10:49:45;93249.91;;;6.50;100.00
24280;BME280;12395;42.808;23.408;2023-12-22T10:52:16;93262.56;;;6.71;100.00
24280;BME280;12395;42.808;23.408;2023-12-22T10:54:42;93258.94;;;6.83;100.00
24280;BME280;12395;42.808;23.408;2023-12-22T10:57:10;93256.78;;;6.92;100.00
24280;BME280;12395;42.808;23.408;2023-12-22T10:59:39;93257.38;;;6.94;100.00
24280;BME280;12395;42.808;23.408;2023-12-22T11:02:07;93261.47;;;6.90;100.00
24280;BME280;12395;42.808;23.408;2023-12-22T11:04:37;93265.25;;;6.94;100.00
24280;BME280;12395;42.808;23.408;2023-12-22T11:07:03;93278.09;;;7.02;100.00
24280;BME280;12395;42.808;23.408;2023-12-22T11:09:31;93271.88;;;6.85;100.00
24280;BME280;12395;42.808;23.408;2023-12-22T11:12:00;93268.59;;;6.60;100.00
24280;BME280;12395;42.808;23.408;2023-12-22T11:14:26;93258.91;;;6.42;100.00
24280;BME280;12395;42.808;23.408;2023-12-22T11:16:53;93254.28;;;6.38;100.00
24280;BME280;12395;42.808;23.408;2023-12-22T11:19:20;93248.59;;;6.41;100.00
24280;BME280;12395;42.808;23.408;2023-12-22T11:21:47;93241.03;;;6.33;100.00
24280;BME280;12395;42.808;23.408;2023-12-22T11:24:14;93235.19;;;6.31;100.00
24280;BME280;12395;42.808;23.408;2023-12-22T11:26:42;93239.41;;;6.32;100.00
24280;BME280;12395;42.808;23.408;2023-12-22T11:29:10;93246.13;;;6.46;100.00
24280;BME280;12395;42.808;23.408;2023-12-22T11:31:37;93235.84;;;6.56;100.00
24280;BME280;12395;42.808;23.408;2023-12-22T11:34:04;93251.28;;;6.82;100.00
24280;BME280;12395;42.808;23.408;2023-12-22T11:36:31;93249.84;;;6.68;100.00
24280;BME280;12395;42.808;23.408;2023-12-22T11:38:56;93258.09;;;6.71;100.00
24280;BME280;12395;42.808;23.408;2023-12-22T11:41:25;93265.72;;;6.61;100.00
24280;BME280;12395;42.808;23.408;2023-12-22T11:43:52;93277.41;;;6.65;100.00
24280;BME280;12395;42.808;23.408;2023-12-22T11:47:35;93289.38;;;6.50;100.00
24280;BME280;12395;42.808;23.408;2023-12-22T11:50:00;93278.69;;;6.45;100.00
24280;BME280;12395;42.808;23.408;2023-12-22T11:52:26;93275.34;;;6.38;100.00
24280;BME280;12395;42.808;23.408;2023-12-22T11:54:54;93253.88;;;6.41;100.00
24280;BME280;12395;42.808;23.408;2023-12-22T11:59:55;93258.28;;;6.58;100.00
24280;BME280;12395;42.808;23.408;2023-12-22T12:02:21;93248.47;;;6.65;100.00
24280;BME280;12395;42.808;23.408;2023-12-22T12:04:47;93259.03;;;6.77;100.00
24280;BME280;12395;42.808;23.408;2023-12-22T12:07:46;93265.31;;;6.76;100.00
24280;BME280;12395;42.808;23.408;2023-12-22T12:13:11;93258.69;;;6.73;100.00
24280;BME280;12395;42.808;23.408;2023-12-22T12:15:37;93265.88;;;6.78;100.00
24280;BME280;12395;42.808;23.408;2023-12-22T12:18:04;93258.13;;;6.83;100.00
24280;BME280;12395;42.808;23.408;2023-12-22T12:20:31;93251.28;;;6.82;100.00
24280;BME280;12395;42.808;23.408;2023-12-22T12:22:57;93249.19;;;6.72;100.00
24280;BME280;12395;42.808;23.408;2023-12-22T12:25:23;93248.66;;;6.82;100.00
24280;BME280;12395;42.808;23.408;2023-12-22T12:28:01;93231.00;;;6.82;100.00
24280;BME280;12395;42.808;23.408;2023-12-22T12:30:26;93218.66;;;6.83;100.00
24280;BME280;12395;42.808;23.408;2023-12-22T12:36:32;93227.59;;;6.82;100.00
24280;BME280;12395;42.808;23.408;2023-12-22T12:39:06;93220.00;;;6.74;100.00
24280;BME280;12395;42.808;23.408;2023-12-22T12:41:40;93229.03;;;6.78;100.00
24280;BME280;12395;42.808;23.408;2023-12-22T12:44:06;93225.50;;;6.72;100.00
24280;BME280;12395;42.808;23.408;2023-12-22T12:46:37;93219.59;;;6.59;100.00
24280;BME280;12395;42.808;23.408;2023-12-22T12:49:10;93238.03;;;6.59;100.00
24280;BME280;12395;42.808;23.408;2023-12-22T12:51:42;93243.16;;;6.54;100.00
24280;BME280;12395;42.808;23.408;2023-12-22T12:54:09;93245.22;;;6.52;100.00
24280;BME280;12395;42.808;23.408;2023-12-22T12:56:39;93236.75;;;6.50;100.00
24280;BME280;12395;42.808;23.408;2023-12-22T12:59:12;93241.88;;;6.45;100.00
24280;BME280;12395;42.808;23.408;2023-12-22T13:01:39;93252.75;;;6.48;100.00
24280;BME280;12395;42.808;23.408;2023-12-22T13:04:05;93226.59;;;6.35;100.00
24280;BME280;12395;42.808;23.408;2023-12-22T13:06:31;93240.47;;;6.42;100.00
24280;BME280;12395;42.808;23.408;2023-12-22T13:08:56;93215.16;;;6.30;100.00
24280;BME280;12395;42.808;23.408;2023-12-22T13:11:23;93238.88;;;6.41;100.00